createdAt,value
2018-09-02T00:00:25.149Z,92543.22
2018-09-02T00:03:01.951Z,92547.01
2018-09-02T00:05:37.776Z,92547.23
2018-09-02T00:08:13.722Z,92556.88
2018-09-02T00:10:49.576Z,92553.87
2018-09-02T00:13:25.433Z,92554.28
2018-09-02T00:16:01.369Z,92557.98
2018-09-02T00:18:37.310Z,92556.38
2018-09-02T00:21:13.262Z,92560.14
2018-09-02T00:23:49.463Z,92559.26
2018-09-02T00:26:25.172Z,92554.56
2018-09-02T00:29:00.945Z,92559.81
2018-09-02T00:31:37.280Z,92549.71
2018-09-02T00:34:13.277Z,92557.83
2018-09-02T00:36:49.019Z,92550.40
2018-09-02T00:39:25.696Z,92557.62
2018-09-02T00:42:01.325Z,92558.63
2018-09-02T00:44:37.666Z,92560.09
2018-09-02T00:47:13.460Z,92560.45
2018-09-02T00:49:49.216Z,92558.64
2018-09-02T00:52:25.436Z,92558.12
2018-09-02T00:55:01.229Z,92561.55
2018-09-02T00:57:37.084Z,92555.92
2018-09-02T01:00:13.653Z,92555.20
2018-09-02T01:02:49.409Z,92556.97
2018-09-02T01:05:25.516Z,92559.82
2018-09-02T01:08:01.340Z,92552.56
2018-09-02T01:10:37.282Z,92556.19
2018-09-02T01:13:13.529Z,92555.77
2018-09-02T01:15:49.302Z,92558.06
2018-09-02T01:18:25.136Z,92550.60
2018-09-02T01:21:01.779Z,92551.88
2018-09-02T01:23:38.405Z,92551.02
2018-09-02T01:26:14.220Z,92550.40
2018-09-02T01:28:50.075Z,92545.56
2018-09-02T01:31:26.091Z,92544.31
2018-09-02T01:34:02.619Z,92547.92
2018-09-02T01:36:38.570Z,92541.71
2018-09-02T01:39:15.414Z,92544.48
2018-09-02T01:43:15.557Z,92544.13
2018-09-02T01:45:51.389Z,92555.44
2018-09-02T01:48:27.186Z,92549.23
2018-09-02T01:51:02.954Z,92551.47
2018-09-02T01:53:38.838Z,92550.76
2018-09-02T01:56:15.200Z,92552.63
2018-09-02T01:58:51.472Z,92546.30
2018-09-02T02:01:27.520Z,92548.45
2018-09-02T02:04:03.522Z,92547.14
2018-09-02T02:06:39.297Z,92544.45
2018-09-02T02:09:15.185Z,92546.41
2018-09-02T02:11:50.997Z,92543.52
2018-09-02T02:14:26.938Z,92545.78
2018-09-02T02:17:03.896Z,92550.08
2018-09-02T02:19:39.996Z,92552.36
2018-09-02T02:22:15.722Z,92550.02
2018-09-02T02:24:51.487Z,92551.75
2018-09-02T02:27:27.339Z,92552.71
2018-09-02T02:30:03.453Z,92558.48
2018-09-02T02:32:39.274Z,92566.93
2018-09-02T02:35:15.151Z,92562.17
2018-09-02T02:37:50.886Z,92568.05
2018-09-02T02:40:26.697Z,92565.50
2018-09-02T02:43:02.483Z,92567.37
2018-09-02T02:45:38.786Z,92570.52
2018-09-02T02:48:14.679Z,92570.22
2018-09-02T02:50:50.623Z,92566.31
2018-09-02T02:53:27.153Z,92565.23
2018-09-02T02:56:02.887Z,92569.43
2018-09-02T02:58:39.070Z,92568.23
2018-09-02T03:01:15.003Z,92570.45
2018-09-02T03:03:50.746Z,92567.50
2018-09-02T03:06:27.424Z,92569.37
2018-09-02T03:09:03.871Z,92573.87
2018-09-02T03:11:40.085Z,92579.13
2018-09-02T03:14:15.858Z,92571.80
2018-09-02T03:16:51.711Z,92573.09
2018-09-02T03:19:27.625Z,92569.68
2018-09-02T03:22:03.420Z,92566.47
2018-09-02T03:24:39.162Z,92573.86
2018-09-02T03:27:14.981Z,92580.48
2018-09-02T03:29:50.762Z,92573.31
2018-09-02T03:32:26.623Z,92576.08
2018-09-02T03:35:02.878Z,92578.94
2018-09-02T03:37:38.784Z,92572.72
2018-09-02T03:40:14.518Z,92572.45
2018-09-02T03:42:50.271Z,92575.27
2018-09-02T03:45:26.033Z,92579.57
2018-09-02T03:48:02.017Z,92583.72
2018-09-02T03:50:37.714Z,92579.45
2018-09-02T03:53:13.532Z,92574.23
2018-09-02T03:55:49.246Z,92578.34
2018-09-02T03:58:25.701Z,92581.11
2018-09-02T04:01:03.501Z,92585.37
2018-09-02T04:03:40.204Z,92583.66
2018-09-02T04:06:16.230Z,92582.86
2018-09-02T04:08:51.892Z,92584.77
2018-09-02T04:11:28.127Z,92587.70
2018-09-02T04:14:04.607Z,92590.79
2018-09-02T04:16:45.350Z,92588.73
2018-09-02T04:19:21.269Z,92591.90
2018-09-02T04:21:57.944Z,92597.60
2018-09-02T04:24:33.790Z,92597.28
2018-09-02T04:27:09.701Z,92598.48
2018-09-02T04:29:45.558Z,92598.97
2018-09-02T04:32:21.327Z,92603.78
2018-09-02T04:34:57.330Z,92600.92
2018-09-02T04:37:45.206Z,92609.80
2018-09-02T04:40:21.962Z,92613.70
2018-09-02T04:42:57.733Z,92606.94
2018-09-02T04:45:33.387Z,92613.20
2018-09-02T04:48:10.066Z,92612.41
2018-09-02T04:50:50.095Z,92612.59
2018-09-02T04:53:25.817Z,92607.31
2018-09-02T04:56:02.266Z,92607.53
2018-09-02T04:58:38.028Z,92608.84
2018-09-02T05:01:13.844Z,92612.63
2018-09-02T05:03:49.774Z,92607.28
2018-09-02T05:06:26.279Z,92616.16
2018-09-02T05:09:02.038Z,92609.20
2018-09-02T05:11:38.144Z,92609.19
2018-09-02T05:14:23.095Z,92614.16
2018-09-02T05:16:59.046Z,92612.73
2018-09-02T05:19:35.646Z,92613.08
2018-09-02T05:22:13.494Z,92604.39
2018-09-02T05:24:49.921Z,92605.52
2018-09-02T05:27:26.939Z,92607.47
2018-09-02T05:30:03.874Z,92604.36
2018-09-02T05:32:39.702Z,92604.48
2018-09-02T05:35:15.533Z,92600.46
2018-09-02T05:37:52.257Z,92593.68
2018-09-02T05:40:36.977Z,92598.44
2018-09-02T05:43:14.648Z,92594.56
2018-09-02T05:45:50.511Z,92599.99
2018-09-02T05:48:29.271Z,92597.22
2018-09-02T05:51:04.908Z,92598.45
2018-09-02T05:53:45.711Z,92596.36
2018-09-02T05:56:21.465Z,92596.51
2018-09-02T06:00:21.406Z,92597.94
2018-09-02T06:02:57.290Z,92593.37
2018-09-02T06:05:33.186Z,92597.53
2018-09-02T06:08:09.109Z,92595.80
2018-09-02T06:10:46.684Z,92599.68
2018-09-02T06:13:22.309Z,92596.55
2018-09-02T06:15:58.536Z,92598.70
2018-09-02T06:18:29.600Z,92598.76
2018-09-02T06:21:00.488Z,92600.07
2018-09-02T06:23:33.568Z,92597.92
2018-09-02T06:26:04.387Z,92596.30
2018-09-02T06:28:37.228Z,92602.78
2018-09-02T06:31:09.130Z,92598.52
2018-09-02T06:33:40.866Z,92599.02
2018-09-02T06:36:14.132Z,92592.23
2018-09-02T06:38:45.098Z,92599.52
2018-09-02T06:41:15.938Z,92597.75
2018-09-02T06:43:47.948Z,92587.51
2018-09-02T06:46:19.172Z,92598.47
2018-09-02T06:48:50.101Z,92590.36
2018-09-02T06:51:24.522Z,92593.89
2018-09-02T06:53:55.522Z,92596.71
2018-09-02T06:56:26.333Z,92592.30
2018-09-02T06:58:58.102Z,92595.75
2018-09-02T07:01:31.289Z,92596.34
2018-09-02T07:04:02.531Z,92592.63
2018-09-02T07:06:35.903Z,92592.87
2018-09-02T07:09:09.081Z,92593.95
2018-09-02T07:11:39.916Z,92586.45
2018-09-02T07:14:10.734Z,92591.63
2018-09-02T07:16:42.293Z,92586.89
2018-09-02T07:19:15.596Z,92584.45
2018-09-02T07:21:48.283Z,92586.30
2018-09-02T07:24:19.507Z,92581.70
2018-09-02T07:26:53.981Z,92586.45
2018-09-02T07:29:24.921Z,92582.30
2018-09-02T07:31:56.549Z,92581.73
2018-09-02T07:34:27.388Z,92579.11
2018-09-02T07:36:58.240Z,92580.84
2018-09-02T07:39:29.076Z,92578.66
2018-09-02T07:41:59.938Z,92587.59
2018-09-02T07:44:34.588Z,92577.00
2018-09-02T07:47:05.458Z,92581.34
2018-09-02T07:49:36.405Z,92576.44
2018-09-02T07:52:07.230Z,92580.19
2018-09-02T07:54:39.325Z,92581.20
2018-09-02T07:57:10.454Z,92576.63
2018-09-02T07:59:42.195Z,92574.03
2018-09-02T08:02:13.044Z,92571.88
2018-09-02T08:04:43.860Z,92567.48
2018-09-02T08:07:14.752Z,92570.89
2018-09-02T08:09:45.557Z,92561.86
2018-09-02T08:12:16.527Z,92566.23
2018-09-02T08:14:47.588Z,92562.78
2018-09-02T08:17:18.833Z,92558.73
2018-09-02T08:19:50.314Z,92556.91
2018-09-02T08:22:21.403Z,92552.71
2018-09-02T08:24:52.591Z,92549.53
2018-09-02T08:27:23.411Z,92546.83
2018-09-02T08:29:54.202Z,92548.37
2018-09-02T08:32:25.440Z,92538.56
2018-09-02T08:34:56.325Z,92545.10
2018-09-02T08:37:27.217Z,92536.02
2018-09-02T08:39:58.199Z,92539.50
2018-09-02T08:42:29.056Z,92531.00
2018-09-02T08:45:00.327Z,92533.27
2018-09-02T08:47:31.173Z,92534.42
2018-09-02T08:50:01.982Z,92527.03
2018-09-02T08:52:32.848Z,92527.84
2018-09-02T08:55:03.727Z,92515.27
2018-09-02T08:57:34.569Z,92513.85
2018-09-02T09:00:10.409Z,92514.09
2018-09-02T09:02:42.408Z,92508.70
2018-09-02T09:05:13.659Z,92504.81
2018-09-02T09:07:44.833Z,92503.61
2018-09-02T09:10:15.771Z,92502.03
2018-09-02T09:12:46.602Z,92507.42
2018-09-02T09:15:17.395Z,92505.53
2018-09-02T09:17:48.530Z,92497.55
2018-09-02T09:20:19.451Z,92495.00
2018-09-02T09:22:50.360Z,92500.06
2018-09-02T09:25:21.183Z,92495.14
2018-09-02T09:27:52.407Z,92494.98
2018-09-02T09:30:23.179Z,92491.31
2018-09-02T09:32:54.219Z,92493.73
2018-09-02T09:35:25.728Z,92489.81
2018-09-02T09:37:56.627Z,92493.58
2018-09-02T09:40:27.522Z,92490.18
2018-09-02T09:42:58.989Z,92481.81
2018-09-02T09:45:29.902Z,92476.64
2018-09-02T09:48:00.761Z,92479.03
2018-09-02T09:50:31.553Z,92470.11
2018-09-02T09:53:03.219Z,92463.18
2018-09-02T09:55:34.388Z,92463.94
2018-09-02T09:58:05.485Z,92463.90
2018-09-02T10:00:41.274Z,92460.42
2018-09-02T10:03:12.141Z,92461.61
2018-09-02T10:05:43.933Z,92456.94
2018-09-02T10:08:15.333Z,92461.15
2018-09-02T10:10:47.547Z,92451.31
2018-09-02T10:13:19.015Z,92448.73
2018-09-02T10:15:49.830Z,92450.31
2018-09-02T10:18:20.911Z,92449.91
2018-09-02T10:20:52.175Z,92448.56
2018-09-02T10:23:23.052Z,92447.75
2018-09-02T10:25:53.857Z,92435.31
2018-09-02T10:28:24.790Z,92436.17
2018-09-02T10:30:55.576Z,92438.37
2018-09-02T10:33:27.699Z,92433.49
2018-09-02T10:35:58.715Z,92431.40
2018-09-02T10:38:29.633Z,92431.36
2018-09-02T10:41:00.497Z,92432.72
2018-09-02T10:43:31.763Z,92434.83
2018-09-02T10:46:03.631Z,92429.23
2018-09-02T10:48:34.533Z,92423.61
2018-09-02T10:51:05.400Z,92417.92
2018-09-02T10:53:36.336Z,92412.52
2018-09-02T10:56:08.316Z,92425.77
2018-09-02T10:58:40.383Z,92426.52
2018-09-02T11:01:11.858Z,92425.15
2018-09-02T11:03:43.461Z,92413.28
2018-09-02T11:06:26.667Z,92408.44
2018-09-02T11:09:13.013Z,92405.54
2018-09-02T11:11:44.213Z,92404.18
2018-09-02T11:14:15.868Z,92404.29
2018-09-02T11:16:47.097Z,92404.31
2018-09-02T11:19:17.944Z,92402.20
2018-09-02T11:21:48.718Z,92393.16
2018-09-02T11:24:19.586Z,92394.55
2018-09-02T11:26:50.440Z,92389.67
2018-09-02T11:29:21.925Z,92386.81
2018-09-02T11:31:52.802Z,92379.89
2018-09-02T11:34:23.752Z,92380.62
2018-09-02T11:36:54.562Z,92383.98
2018-09-02T11:39:26.997Z,92380.44
2018-09-02T11:41:58.670Z,92381.88
2018-09-02T11:44:29.614Z,92380.46
2018-09-02T11:47:00.848Z,92382.02
2018-09-02T11:49:33.888Z,92382.03
2018-09-02T11:52:04.898Z,92377.02
2018-09-02T11:54:35.800Z,92380.34
2018-09-02T11:57:07.282Z,92374.66
2018-09-02T11:59:38.763Z,92375.06
2018-09-02T12:02:09.594Z,92369.49
2018-09-02T12:04:45.260Z,92372.24
2018-09-02T12:07:16.436Z,92373.63
2018-09-02T12:09:47.320Z,92363.94
2018-09-02T12:12:18.636Z,92356.84
2018-09-02T12:14:49.572Z,92356.52
2018-09-02T12:17:20.455Z,92366.31
2018-09-02T12:19:51.362Z,92358.66
2018-09-02T12:22:22.270Z,92360.77
2018-09-02T12:24:53.606Z,92356.61
2018-09-02T12:27:24.492Z,92352.36
2018-09-02T12:29:55.295Z,92347.55
2018-09-02T12:32:26.292Z,92351.85
2018-09-02T12:34:57.194Z,92354.89
2018-09-02T12:37:32.901Z,92345.86
2018-09-02T12:40:03.807Z,92353.49
2018-09-02T12:42:34.755Z,92346.38
2018-09-02T12:45:06.633Z,92350.91
2018-09-02T12:47:37.582Z,92340.91
2018-09-02T12:50:08.629Z,92340.80
2018-09-02T12:52:39.415Z,92344.28
2018-09-02T12:55:10.544Z,92340.75
2018-09-02T12:57:41.995Z,92341.11
2018-09-02T13:00:12.840Z,92341.05
2018-09-02T13:02:43.622Z,92344.02
2018-09-02T13:05:16.738Z,92341.91
2018-09-02T13:07:48.714Z,92330.30
2018-09-02T13:10:20.242Z,92330.56
2018-09-02T13:12:52.202Z,92333.37
2018-09-02T13:15:23.483Z,92327.77
2018-09-02T13:17:54.963Z,92334.74
2018-09-02T13:20:30.333Z,92336.15
2018-09-02T13:23:03.809Z,92329.14
2018-09-02T13:25:41.067Z,92332.98
2018-09-02T13:28:12.230Z,92331.77
2018-09-02T13:30:45.028Z,92331.85
2018-09-02T13:33:16.064Z,92332.50
2018-09-02T13:35:46.959Z,92330.31
2018-09-02T13:38:17.808Z,92334.61
2018-09-02T13:40:50.492Z,92327.43
2018-09-02T13:43:21.313Z,92336.44
2018-09-02T13:45:52.407Z,92335.72
2018-09-02T13:48:23.405Z,92330.05
2018-09-02T13:50:55.145Z,92329.18
2018-09-02T13:53:26.105Z,92336.44
2018-09-02T13:55:57.011Z,92329.88
2018-09-02T13:58:28.381Z,92336.90
2018-09-02T14:00:59.220Z,92328.33
2018-09-02T14:03:30.697Z,92327.70
2018-09-02T14:06:01.529Z,92327.77
2018-09-02T14:08:32.292Z,92325.76
2018-09-02T14:11:04.049Z,92336.62
2018-09-02T14:13:34.994Z,92328.89
2018-09-02T14:16:05.914Z,92340.99
2018-09-02T14:18:36.691Z,92332.61
2018-09-02T14:21:07.541Z,92329.75
2018-09-02T14:23:38.333Z,92332.03
2018-09-02T14:26:14.200Z,92327.23
2018-09-02T14:28:45.016Z,92331.58
2018-09-02T14:31:15.852Z,92328.27
2018-09-02T14:33:47.258Z,92323.97
2018-09-02T14:36:18.101Z,92318.56
2018-09-02T14:38:48.879Z,92326.48
2018-09-02T14:41:19.775Z,92326.38
2018-09-02T14:43:50.588Z,92326.11
2018-09-02T14:46:21.520Z,92327.39
2018-09-02T14:48:52.623Z,92319.41
2018-09-02T14:51:23.496Z,92311.00
2018-09-02T14:53:55.217Z,92320.44
2018-09-02T14:56:26.865Z,92315.44
2018-09-02T14:58:57.900Z,92325.36
2018-09-02T15:01:28.886Z,92325.86
2018-09-02T15:03:59.751Z,92322.03
2018-09-02T15:06:30.723Z,92331.98
2018-09-02T15:09:02.791Z,92327.14
2018-09-02T15:11:33.701Z,92326.31
2018-09-02T15:14:04.687Z,92331.66
2018-09-02T15:16:35.708Z,92329.63
2018-09-02T15:19:10.020Z,92330.88
2018-09-02T15:21:41.069Z,92332.66
2018-09-02T15:24:11.868Z,92333.85
2018-09-02T15:26:42.741Z,92331.29
2018-09-02T15:29:14.426Z,92331.14
2018-09-02T15:31:47.914Z,92330.98
2018-09-02T15:34:18.681Z,92327.49
2018-09-02T15:36:50.121Z,92329.47
2018-09-02T15:39:20.970Z,92328.09
2018-09-02T15:41:52.026Z,92326.33
2018-09-02T15:44:22.931Z,92323.66
2018-09-02T15:46:53.768Z,92323.47
2018-09-02T15:49:24.584Z,92321.05
2018-09-02T15:51:55.685Z,92318.19
2018-09-02T15:54:26.454Z,92313.32
2018-09-02T15:56:57.346Z,92320.78
2018-09-02T15:59:28.211Z,92326.88
2018-09-02T16:01:59.024Z,92324.00
2018-09-02T16:04:29.797Z,92319.81
2018-09-02T16:07:00.742Z,92321.83
2018-09-02T16:09:31.667Z,92318.84
2018-09-02T16:12:02.525Z,92318.02
2018-09-02T16:14:34.324Z,92317.95
2018-09-02T16:17:05.972Z,92317.58
2018-09-02T16:19:37.490Z,92318.81
2018-09-02T16:22:08.315Z,92321.60
2018-09-02T16:24:39.113Z,92322.27
2018-09-02T16:27:09.978Z,92327.64
2018-09-02T16:29:40.938Z,92330.95
2018-09-02T16:32:12.296Z,92330.77
2018-09-02T16:34:43.241Z,92340.16
2018-09-02T16:37:19.126Z,92343.73
2018-09-02T16:39:55.047Z,92342.80
2018-09-02T16:42:31.748Z,92347.70
2018-09-02T16:45:02.826Z,92347.13
2018-09-02T16:47:34.340Z,92346.53
2018-09-02T16:50:05.313Z,92348.85
2018-09-02T16:52:36.152Z,92349.73
2018-09-02T16:55:07.959Z,92351.91
2018-09-02T16:57:39.493Z,92352.20
2018-09-02T17:00:10.747Z,92357.14
2018-09-02T17:02:41.585Z,92362.86
2018-09-02T17:05:20.053Z,92363.74
2018-09-02T17:07:52.485Z,92364.02
2018-09-02T17:11:47.891Z,92362.56
2018-09-02T17:14:18.889Z,92376.63
2018-09-02T17:16:51.058Z,92376.12
2018-09-02T17:19:29.826Z,92382.33
2018-09-02T17:22:01.398Z,92383.14
2018-09-02T17:24:32.325Z,92378.14
2018-09-02T17:27:03.175Z,92386.50
2018-09-02T17:29:34.089Z,92388.47
2018-09-02T17:32:09.348Z,92392.63
2018-09-02T17:34:40.212Z,92392.19
2018-09-02T17:37:11.310Z,92396.16
2018-09-02T17:39:42.152Z,92396.42
2018-09-02T17:42:13.768Z,92395.34
2018-09-02T17:44:45.465Z,92404.23
2018-09-02T17:47:16.269Z,92404.71
2018-09-02T17:49:47.133Z,92402.88
2018-09-02T17:52:17.956Z,92403.38
2018-09-02T17:54:48.943Z,92410.59
2018-09-02T17:57:32.602Z,92412.03
2018-09-02T18:00:03.636Z,92414.89
2018-09-02T18:02:34.550Z,92411.41
2018-09-02T18:05:05.493Z,92418.14
2018-09-02T18:07:43.875Z,92420.05
2018-09-02T18:10:14.863Z,92425.37
2018-09-02T18:12:45.810Z,92432.31
2018-09-02T18:15:16.843Z,92437.75
2018-09-02T18:17:47.648Z,92436.47
2018-09-02T18:20:18.564Z,92434.44
2018-09-02T18:22:49.363Z,92445.72
2018-09-02T18:25:21.506Z,92440.41
2018-09-02T18:27:55.486Z,92442.61
2018-09-02T18:30:26.842Z,92445.67
2018-09-02T18:32:58.403Z,92448.20
2018-09-02T18:35:29.929Z,92447.23
2018-09-02T18:38:00.791Z,92444.00
2018-09-02T18:40:32.542Z,92444.62
2018-09-02T18:43:03.368Z,92453.05
2018-09-02T18:46:58.848Z,92453.66
2018-09-02T18:49:29.713Z,92437.72
2018-09-02T18:52:00.661Z,92441.46
2018-09-02T18:54:33.411Z,92442.64
2018-09-02T18:57:04.376Z,92443.27
2018-09-02T18:59:35.353Z,92445.86
2018-09-02T19:02:06.460Z,92443.45
2018-09-02T19:04:37.388Z,92445.91
2018-09-02T19:07:08.746Z,92446.47
2018-09-02T19:09:39.715Z,92442.52
2018-09-02T19:12:10.829Z,92455.46
2018-09-02T19:14:42.435Z,92459.17
2018-09-02T19:17:13.560Z,92457.34
2018-09-02T19:19:44.360Z,92469.14
2018-09-02T19:22:15.303Z,92463.36
2018-09-02T19:24:46.100Z,92464.06
2018-09-02T19:27:17.641Z,92462.59
2018-09-02T19:29:49.235Z,92461.09
2018-09-02T19:32:21.060Z,92466.46
2018-09-02T19:34:52.055Z,92458.75
2018-09-02T19:37:22.947Z,92456.35
2018-09-02T19:39:53.795Z,92457.74
2018-09-02T19:42:24.706Z,92457.38
2018-09-02T19:44:57.126Z,92462.92
2018-09-02T19:47:29.208Z,92458.19
2018-09-02T19:50:00.809Z,92458.62
2018-09-02T19:52:32.602Z,92459.45
2018-09-02T19:55:03.753Z,92465.54
2018-09-02T19:57:34.838Z,92465.31
2018-09-02T20:00:12.067Z,92464.83
2018-09-02T20:02:47.818Z,92472.13
2018-09-02T20:05:26.092Z,92474.52
2018-09-02T20:08:02.913Z,92471.94
2018-09-02T20:10:39.152Z,92472.09
2018-09-02T20:13:14.996Z,92468.40
2018-09-02T20:15:50.662Z,92461.35
2018-09-02T20:18:27.371Z,92471.45
2018-09-02T20:21:03.270Z,92467.04
2018-09-02T20:23:39.164Z,92466.19
2018-09-02T20:26:15.192Z,92464.72
2018-09-02T20:28:52.225Z,92463.67
2018-09-02T20:31:28.227Z,92461.55
2018-09-02T20:34:04.044Z,92456.37
2018-09-02T20:36:39.837Z,92465.34
2018-09-02T20:39:16.470Z,92466.66
2018-09-02T20:41:52.204Z,92464.86
2018-09-02T20:44:28.208Z,92458.79
2018-09-02T20:47:04.099Z,92459.67
2018-09-02T20:49:39.729Z,92462.18
2018-09-02T20:52:15.527Z,92459.88
2018-09-02T20:54:51.649Z,92462.94
2018-09-02T20:57:27.474Z,92459.52
2018-09-02T21:00:03.445Z,92459.06
2018-09-02T21:02:40.079Z,92461.91
2018-09-02T21:05:16.785Z,92461.94
2018-09-02T21:07:52.921Z,92467.96
2018-09-02T21:10:28.899Z,92467.49
2018-09-02T21:13:04.873Z,92466.61
2018-09-02T21:15:41.510Z,92473.28
2018-09-02T21:18:17.263Z,92464.54
2018-09-02T21:20:53.662Z,92468.27
2018-09-02T21:23:29.434Z,92466.19
2018-09-02T21:26:05.441Z,92464.66
2018-09-02T21:28:41.375Z,92461.55
2018-09-02T21:31:17.622Z,92462.33
2018-09-02T21:33:54.818Z,92467.09
2018-09-02T21:36:30.832Z,92466.48
2018-09-02T21:39:11.656Z,92459.52
2018-09-02T21:41:47.714Z,92463.00
2018-09-02T21:44:23.619Z,92460.20
2018-09-02T21:47:00.336Z,92459.91
2018-09-02T21:49:36.079Z,92456.65
2018-09-02T21:52:11.883Z,92452.64
2018-09-02T21:54:47.756Z,92453.73
2018-09-02T21:57:23.889Z,92451.44
2018-09-02T22:00:05.542Z,92452.97
2018-09-02T22:02:42.973Z,92450.91
2018-09-02T22:05:19.171Z,92447.07
2018-09-02T22:07:55.089Z,92443.45
2018-09-02T22:10:30.857Z,92450.55
2018-09-02T22:13:07.231Z,92451.41
2018-09-02T22:15:43.477Z,92441.52
2018-09-02T22:18:19.890Z,92437.91
2018-09-02T22:20:55.833Z,92434.41
2018-09-02T22:23:31.732Z,92433.11
2018-09-02T22:26:07.463Z,92431.84
2018-09-02T22:28:44.029Z,92435.01
2018-09-02T22:31:21.439Z,92437.53
2018-09-02T22:33:57.578Z,92432.28
2018-09-02T22:36:34.277Z,92428.14
2018-09-02T22:39:10.253Z,92424.27
2018-09-02T22:41:46.152Z,92425.61
2018-09-02T22:44:21.964Z,92429.95
2018-09-02T22:46:57.725Z,92426.41
2018-09-02T22:49:34.464Z,92420.48
2018-09-02T22:52:10.242Z,92412.35
2018-09-02T22:54:45.941Z,92416.61
2018-09-02T22:57:24.144Z,92410.86
2018-09-02T23:00:00.304Z,92411.90
2018-09-02T23:02:37.036Z,92413.45
2018-09-02T23:05:16.693Z,92416.22
2018-09-02T23:07:52.682Z,92413.83
2018-09-02T23:10:28.485Z,92413.19
2018-09-02T23:13:05.080Z,92416.16
2018-09-02T23:15:41.086Z,92411.20
2018-09-02T23:18:16.834Z,92416.94
2018-09-02T23:20:53.208Z,92415.23
2018-09-02T23:23:29.062Z,92401.28
2018-09-02T23:26:05.346Z,92402.23
2018-09-02T23:28:41.105Z,92403.59
2018-09-02T23:31:18.114Z,92404.42
2018-09-02T23:33:55.121Z,92412.41
2018-09-02T23:36:34.085Z,92412.48
2018-09-02T23:39:11.550Z,92408.13
2018-09-02T23:41:47.455Z,92406.34
2018-09-02T23:44:23.250Z,92409.70
2018-09-02T23:46:59.388Z,92404.76
2018-09-02T23:49:35.301Z,92407.46
2018-09-02T23:52:14.346Z,92398.83
2018-09-02T23:54:50.048Z,92396.19
2018-09-02T23:57:25.915Z,92396.30
